AirNav   Duncan Aviation - Near you to keep you flying
 
 1702 users online  

T32 Sudden Stop Airport
Collinsville, Texas, USA

GOING TO COLLINSVILLE?


FAA INFORMATION EFFECTIVE 14 JULY 2022

Location

FAA Identifier: T32
Lat/Long: 33-34-17.3920N 096-54-26.0090W
33-34.289867N 096-54.433483W
33.5714978,-96.9072247
(estimated)
Elevation: 720 ft. / 219 m (estimated)
Variation: 07E (1980)
From city: 1 mile NE of COLLINSVILLE, TX
Time zone: UTC -5 (UTC -6 during Standard Time)
Zip code: 76233

Airport Operations

Airport use: Open to the public
Activation date: 11/1986
Control tower: no
ARTCC: FORT WORTH CENTER
FSS: FORT WORTH FLIGHT SERVICE STATION
NOTAMs facility: FTW (NOTAM-D service available)
Attendance: CONTINUOUS
Wind indicator: yes
Segmented circle: no

Airport Communications

CTAF: 122.9
WX AWOS-3 at GYI (14 nm NE): 118.775 (903-786-7790)
WX AWOS-3 at GLE (15 nm W): 118.375 (940-612-3549)

Nearby radio navigation aids

VOR radial/distance  VOR name  Freq  Var
BYPr267/33.7BONHAM VORTAC114.6006E

 
NDB name  Hdg/Dist  Freq  Var  ID
DENISON212/19.434106EDNI -.. -. ..

Airport Services

Parking: tiedowns

Runway Information

Runway 17/35

Dimensions: 1550 x 60 ft. / 472 x 18 m
Surface: turf, in good condition
RUNWAY 17  RUNWAY 35
Traffic pattern: leftleft
Obstructions: 40 ft. trees15 ft. road, 6 ft. from runway

Airport Ownership and Management from official FAA records

Ownership: Privately-owned
Owner: DON SWINDLE
1207 JOGGERS TRAIL
COLLINSVILLE, TX 76233
Phone 903-429-6343
OWNER LIVES ADJACENT.
Manager: DON SWINDLE
1207 JOGGERS TRAIL
COLLINSVILLE, TX 76233
Phone 903-429-6343

Airport Operational Statistics

Aircraft based on the field: 6
Single engine airplanes: 6
    
Aircraft operations: avg 33/month *
50% transient general aviation
50% local general aviation
* for 12-month period ending 31 December 2019

Additional Remarks

STUDENT TRNG PROHIBITED.
RWY 17/35 THLDS UNMARKED.
RWY SOFT WHEN WET. CALL TO CONFIRM COND.
FOR CD CTC FORT WORTH ARTCC AT 817-858-7584.

Instrument Procedures

There are no published instrument procedures at T32.

Some nearby airports with instrument procedures:

KGYI - North Texas Regional Airport/Perrin Field (14 nm NE)
KGLE - Gainesville Municipal Airport (15 nm W)
KSWI - Sherman Municipal Airport (16 nm E)
KDTO - Denton Enterprise Airport (27 nm SW)
KTKI - McKinney National Airport (29 nm SE)
 
Loc | Ops | Rwys | IFR | FBO | Links
Com | Nav | Svcs | Stats | Notes

City of Fort Worth
 
Area around T32 (Sudden Stop Airport)
 
Road maps at: MapQuest Bing Google
 
Aerial photo
WARNING: Photo may not be current or correct
Aerial photo of T32 (Sudden Stop Airport)
Do you have a better or more recent aerial photo of Sudden Stop Airport that you would like to share? If so, please send us your photo.

 
Sectional chart

 
Airport distance calculator
Flying to Sudden Stop Airport? Find the distance to fly.

From to T32

Sunrise and sunset
Times for 10-Aug-2022
 Local
(UTC-5)
 Zulu
(UTC)
Morning civil twilight06:2111:21
Sunrise06:4711:47
Sunset20:1901:19
Evening civil twilight20:4501:45

Current date and time
Zulu (UTC)  10-Aug-2022 15:10:08
Local (UTC-5)  10-Aug-2022 10:10:08
 
METAR
KGYI 
14nm NE 
101450Z 18004KT 10SM SKC 29/22 A3012
KGLE 
15nm W 
101455Z AUTO 12003KT 10SM CLR 28/21 A3012 RMK AO2 T02790210
KDTO 
27nm SW 
101453Z 15004KT 10SM FEW090 30/22 A3009 RMK AO2 SLP179 T03000222 51007
KTKI 
28nm SE 
101453Z 08003KT 10SM CLR 28/22 A3009 RMK AO2 SLP184 T02830222 50006
TAF
KDFW 
41nm S 
101120Z 1012/1118 12004KT P6SM SCT120 FM101800 VRB06KT P6SM VCTS BKN080CB FM102200 18004KT P6SM BKN160
KAFW 
42nm SW 
101120Z 1012/1112 12004KT P6SM SCT120 FM101800 VRB06KT P6SM VCTS BKN080CB FM102200 18004KT P6SM BKN160
KDAL 
43nm S 
101120Z 1012/1112 12004KT P6SM SCT120 FM101800 VRB06KT P6SM VCTS BKN080CB FM102200 18004KT P6SM BKN160
KFTW 
50nm SW 
101120Z 1012/1112 12004KT P6SM SCT120 FM101800 VRB06KT P6SM VCTS BKN080CB FM102200 18004KT P6SM BKN160
NOTAMs
Click for the latest NOTAMs
NOTAMs are issued by the DoD/FAA and will open in a separate window not controlled by AirNav.

 

 
 

Would you like to see your business listed on this page?

 If your business provides an interesting product or service to pilots, flight crews, aircraft, or users of the Sudden Stop Airport, you should consider listing it here.  To start the listing process, click on the button below
 
Add a business
 

Other Pages about Sudden Stop Airport

Update a link
 
Copyright © AirNav, LLC. All rights reserved. Privacy Policy  Contact